ジュノー の空港の天気 - METARとTAF

ジュノー国際空港 ( PAJN / JNU ) - アメリカ アラスカ州ジュノー
飛行場実況気象(Metar)
観測時間04/25 05:53 AKDT (04/25 13:53 UTC)
風向・風速北 3m/s
視程10km以上
天気現象
少しの雲 雲底高度 370m
全天の8割程度の雲 雲底高度 1070m
全天を覆う雲 雲底高度 1520m
気温5.6℃
湿度92%
気圧1026.2hPa
METARPAJN 251353Z VRB06KT 10SM FEW012 BKN035 OVC050 06/04 A3031 RMK AO2 RAE16 SLP262 PRESENT WX VCSH SW-NW P0000 T00560044
過去の天気等 Google飛行場航空写真 Wunderground天気予報

過去48時間のMETAR

飛行場予報(TAF)
発表時間: 4/25 03:33 AKDT (4/25 11:33 UTC)
予報対象時間: 25日4時 AKDT ~ 26日4時 AKDT
風向・風速東 4m/s
視程10km以上
全天の4割程度の雲 雲底高度 760m
全天を覆う雲 雲底高度 1,220m
25日4時 AKDT ~ 25日6時 AKDT に一時的に
全天の8割程度の雲 雲底高度 760m
全天を覆う雲 雲底高度 1,220m
25日6時 AKDT から
風向・風速東 5m/s
視程10km以上
天気現象弱い雨
全天の8割程度の雲 雲底高度 760m
全天を覆う雲 雲底高度 1,220m
25日13時 AKDT から
風向・風速東南東 5m/s 瞬間風速 9m/s
視程10km以上
天気現象弱い雨
全天の4割程度の雲 雲底高度 760m
全天を覆う雲 雲底高度 1,220m
25日19時 AKDT から
風向・風速東 4m/s
視程10km以上
天気現象弱い雨
全天の4割程度の雲 雲底高度 760m
全天を覆う雲 雲底高度 1,220m
PAJN 251133Z 2512/2612 10008KT P6SM SCT025 OVC040
TEMPO 2512/2514 BKN025 OVC040
FM251400 10010KT P6SM -RA BKN025 OVC040
FM252100 11010G18KT P6SM -RA SCT025 OVC040
FM260300 10007KT P6SM -RA SCT025 OVC040